This is the latest recevied weather packets stored in our database for station/object DL7KST-13. If no packets are shown the sender has not sent any weather packets the latest 10 day(s).
| Time | Temp. | Humidity | Pressure | Rain* | Wind** | Luminosity | Snow |
|---|---|---|---|---|---|---|---|
| 1777459628 | 11.67° C | 26% | 1021 hPa | 0 mm | 3.13 m/s, 58° | - | - |
| 1777458422 | 10.56° C | 26% | 1020.9 hPa | 0 mm | 0.45 m/s, 77° | - | - |
| 1777457218 | 11.67° C | 26% | 1020.9 hPa | 0 mm | 0.45 m/s, 56° | - | - |
| 1777456013 | 11.11° C | 30% | 1020.9 hPa | 0 mm | 0.89 m/s, 67° | - | - |
| 1777454808 | 10.56° C | 27% | 1021 hPa | 0 mm | 0.45 m/s, 173° | - | - |
| 1777453604 | 10° C | 26% | 1021.1 hPa | 0 mm | 1.34 m/s, 198° | - | - |
| 1777452398 | 10° C | 27% | 1021 hPa | 0 mm | 1.79 m/s, 139° | - | - |
| 1777451192 | 9.44° C | 29% | 1021.2 hPa | 0 mm | 0.89 m/s, 184° | - | - |
| 1777449987 | 9.44° C | 28% | 1021 hPa | 0 mm | 2.24 m/s, 110° | - | - |
| 1777448783 | 8.89° C | 29% | 1020.7 hPa | 0 mm | 0.89 m/s, 162° | - | - |
| 1777447578 | 8.89° C | 30% | 1020.9 hPa | 0 mm | 0.89 m/s, 101° | - | - |
| 1777446372 | 8.33° C | 33% | 1020.7 hPa | 0 mm | 1.34 m/s, 104° | - | - |
| 1777445168 | 8.33° C | 35% | 1020.6 hPa | 0 mm | 0.89 m/s, 68° | - | - |
| 1777443963 | 7.78° C | 37% | 1020.5 hPa | 0 mm | 0.89 m/s, 73° | - | - |
| 1777442757 | 6.67° C | 45% | 1020.3 hPa | 0 mm | 0.45 m/s, 109° | - | - |
| 1777441552 | 5.56° C | 47% | 1020 hPa | 0 mm | 1.34 m/s, 87° | - | - |
| 1777440349 | 3.33° C | 58% | 1019.9 hPa | 0 mm | 0.89 m/s, 78° | - | - |
| 1777439143 | 1.11° C | 70% | 1019.4 hPa | 0 mm | 0.89 m/s, 64° | - | - |
| 1777437938 | -1.11° C | 79% | 1019.5 hPa | 0 mm | 0.45 m/s, 89° | - | - |
| 1777436733 | -1.67° C | 82% | 1019.3 hPa | 0 mm | 0.45 m/s, 60° | - | - |
| 1777435528 | -1.67° C | 80% | 1018.9 hPa | 0 mm | 0 m/s | - | - |
| 1777434322 | -1.11° C | 79% | 1018.9 hPa | 0 mm | 0.45 m/s, 78° | - | - |
| 1777433118 | -1.11° C | 78% | 1018.7 hPa | 0 mm | 0.45 m/s, 74° | - | - |
| 1777431913 | 0° C | 75% | 1018.6 hPa | 0 mm | 0.45 m/s, 56° | - | - |
| 1777430708 | 0° C | 74% | 1018.6 hPa | 0 mm | 0.45 m/s, 62° | - | - |
* Rain latest hour (hover to see other rain measurements)
** Current wind speed in m/s (hover to see current wind gust speed)